Time;durP1;ratioP1;P1;durP2;ratioP2;P2;SDS_P1;SDS_P2;PMS_P1;PMS_P2;Temp;Humidity;BMP_temperature;BMP_pressure;BME280_temperature;BME280_humidity;BME280_pressure;Samples;Min_cycle;Max_cycle;Signal;HPM_P1;HPM_P2
2024/01/26 00:01:26;;;;;;;13.73;5.03;;;2.60;24.70;;;;;;5029996;28;20466;-56
2024/01/26 00:03:53;;;;;;;19.10;6.80;;;2.50;24.00;;;;;;5032234;28;20823;-55
2024/01/26 00:06:21;;;;;;;22.77;6.33;;;2.40;24.60;;;;;;5027022;28;20458;-56
2024/01/26 00:08:48;;;;;;;14.03;4.83;;;2.30;25.50;;;;;;5029946;28;20462;-56
2024/01/26 00:11:15;;;;;;;14.90;5.87;;;2.30;21.20;;;;;;5030345;28;20512;-56
2024/01/26 00:13:42;;;;;;;13.93;5.13;;;2.20;23.40;;;;;;5035518;28;20461;-55
2024/01/26 00:16:09;;;;;;;15.93;5.83;;;2.10;23.40;;;;;;5025749;28;20450;-55
2024/01/26 00:18:35;;;;;;;22.93;5.77;;;2.10;21.70;;;;;;5028216;28;20473;-55
2024/01/26 00:21:03;;;;;;;27.73;6.20;;;2.10;99.20;;;;;;5034656;28;20478;-55
2024/01/26 00:23:31;;;;;;;19.00;5.70;;;2.00;79.90;;;;;;5033455;28;20489;-57
2024/01/26 00:25:58;;;;;;;13.90;5.37;;;2.00;97.40;;;;;;5033901;28;20521;-56
2024/01/26 00:28:25;;;;;;;20.90;5.10;;;1.90;99.90;;;;;;5026652;28;20438;-57
2024/01/26 00:30:51;;;;;;;11.67;4.57;;;1.90;91.90;;;;;;5024775;28;21059;-56
2024/01/26 00:33:18;;;;;;;16.87;5.50;;;1.90;99.90;;;;;;5028018;28;20470;-55
2024/01/26 00:35:45;;;;;;;19.30;5.67;;;1.80;99.90;;;;;;5027145;28;20462;-57
2024/01/26 00:38:11;;;;;;;16.40;5.17;;;1.70;99.90;;;;;;5032504;28;20957;-57
2024/01/26 00:40:39;;;;;;;13.23;4.20;;;1.80;99.90;;;;;;5027238;28;20475;-56
2024/01/26 00:43:06;;;;;;;19.17;4.90;;;1.70;99.90;;;;;;5025188;28;20837;-56
2024/01/26 00:45:33;;;;;;;17.80;4.80;;;1.60;99.90;;;;;;5029940;28;20458;-56
2024/01/26 00:47:59;;;;;;;18.27;4.70;;;1.60;99.90;;;;;;5031031;28;21000;-56
2024/01/26 00:50:26;;;;;;;11.80;4.83;;;1.60;99.90;;;;;;5031849;28;20481;-56
2024/01/26 00:52:53;;;;;;;14.37;5.33;;;1.60;97.10;;;;;;5030758;28;20517;-56
2024/01/26 00:55:19;;;;;;;16.83;5.83;;;1.70;93.20;;;;;;5024832;28;20997;-57
2024/01/26 00:57:47;;;;;;;16.20;5.70;;;1.70;91.90;;;;;;5028131;28;20533;-56
2024/01/26 01:00:15;;;;;;;21.70;6.27;;;1.70;80.00;;;;;;5026600;28;20486;-56
2024/01/26 01:02:42;;;;;;;20.83;5.90;;;1.70;82.90;;;;;;5031567;28;21220;-56
2024/01/26 01:05:08;;;;;;;16.73;5.17;;;1.70;92.50;;;;;;5025840;28;21117;-56
2024/01/26 01:07:36;;;;;;;19.50;6.43;;;1.70;20.10;;;;;;5025854;28;20465;-56
2024/01/26 01:10:02;;;;;;;15.73;4.97;;;1.60;23.40;;;;;;5030206;28;20490;-56
2024/01/26 01:12:29;;;;;;;19.03;5.43;;;1.60;23.30;;;;;;5027929;28;20478;-57
2024/01/26 01:14:58;;;;;;;19.10;5.23;;;1.60;21.70;;;;;;5029414;28;20462;-56
2024/01/26 01:17:25;;;;;;;20.27;5.80;;;1.50;23.70;;;;;;5031784;28;20554;-56
2024/01/26 01:19:52;;;;;;;12.17;4.37;;;1.40;24.80;;;;;;5028647;28;20486;-56
2024/01/26 01:22:18;;;;;;;15.50;5.20;;;1.40;25.10;;;;;;5027362;28;20457;-57
2024/01/26 01:24:45;;;;;;;20.23;5.33;;;1.40;24.20;;;;;;5027270;28;20460;-57
2024/01/26 01:27:12;;;;;;;15.33;4.83;;;1.40;21.30;;;;;;5021922;28;20998;-57
2024/01/26 01:29:38;;;;;;;16.10;4.27;;;1.40;22.40;;;;;;5031737;28;20536;-57
2024/01/26 01:32:07;;;;;;;15.10;5.30;;;1.50;96.60;;;;;;5037152;28;20459;-55
2024/01/26 01:34:33;;;;;;;23.97;7.20;;;1.60;99.90;;;;;;5044859;28;20529;-56
2024/01/26 01:37:00;;;;;;;13.53;4.70;;;1.70;99.90;;;;;;5044255;28;20459;-56
2024/01/26 01:39:27;;;;;;;12.93;4.53;;;1.70;99.90;;;;;;5045949;28;20474;-57
2024/01/26 01:41:53;;;;;;;21.27;6.83;;;1.80;99.90;;;;;;5035169;28;20459;-76
2024/01/26 01:44:20;;;;;;;17.23;4.67;;;1.80;99.90;;;;;;5025094;28;20459;-60
2024/01/26 01:46:47;;;;;;;16.83;5.30;;;1.90;99.90;;;;;;5025150;28;20458;-58
2024/01/26 01:49:15;;;;;;;19.73;5.60;;;1.90;99.90;;;;;;5024063;28;20450;-59
2024/01/26 01:51:46;;;;;;;14.83;4.90;;;2.00;99.90;;;;;;5024883;28;20845;-59
2024/01/26 01:54:13;;;;;;;15.57;5.07;;;1.90;99.90;;;;;;5034081;28;20458;-62
2024/01/26 01:56:40;;;;;;;15.43;4.50;;;1.90;99.90;;;;;;5026600;28;20513;-58
2024/01/26 01:59:08;;;;;;;14.00;4.67;;;2.00;99.90;;;;;;5030961;28;20462;-57
2024/01/26 02:01:34;;;;;;;19.60;5.70;;;2.00;99.90;;;;;;5025486;28;20525;-58
2024/01/26 02:04:02;;;;;;;12.73;5.17;;;2.10;99.90;;;;;;5026393;28;20463;-59
2024/01/26 02:06:30;;;;;;;13.27;4.67;;;2.10;99.90;;;;;;5027395;28;20477;-57
2024/01/26 02:08:57;;;;;;;22.87;5.50;;;2.00;99.90;;;;;;5024245;28;20497;-59
2024/01/26 02:11:23;;;;;;;15.33;5.80;;;2.00;99.90;;;;;;5026615;28;20487;-57
2024/01/26 02:13:50;;;;;;;18.10;5.40;;;2.00;99.90;;;;;;5025598;28;20459;-58
2024/01/26 02:16:17;;;;;;;16.73;4.60;;;1.80;99.90;;;;;;5025831;28;20485;-57
2024/01/26 02:18:43;;;;;;;14.47;4.67;;;1.80;99.90;;;;;;5025060;28;20459;-57
2024/01/26 02:21:10;;;;;;;19.27;4.63;;;1.70;99.90;;;;;;5029664;28;20513;-57
2024/01/26 02:23:41;;;;;;;26.20;6.07;;;1.50;99.90;;;;;;5030705;28;20459;-57
2024/01/26 02:26:08;;;;;;;20.53;5.53;;;1.50;99.90;;;;;;5029790;28;20463;-57
2024/01/26 02:28:35;;;;;;;18.30;5.30;;;1.50;99.90;;;;;;5029620;28;20454;-57
2024/01/26 02:31:01;;;;;;;13.27;4.80;;;1.40;99.90;;;;;;5025253;28;20572;-56
2024/01/26 02:33:28;;;;;;;14.20;4.90;;;1.40;99.90;;;;;;5028163;28;20541;-57
2024/01/26 02:35:54;;;;;;;13.80;5.37;;;1.40;99.90;;;;;;5027342;28;20485;-58
2024/01/26 02:38:21;;;;;;;23.27;4.87;;;1.40;99.90;;;;;;5027761;28;20486;-59
2024/01/26 02:40:49;;;;;;;18.43;5.27;;;1.30;99.90;;;;;;5028117;28;20498;-57
2024/01/26 02:43:16;;;;;;;14.43;4.90;;;1.30;99.90;;;;;;5027443;28;20455;-57
2024/01/26 02:45:46;;;;;;;19.90;6.20;;;1.30;99.90;;;;;;5027529;28;20482;-58
2024/01/26 02:48:12;;;;;;;16.93;5.20;;;1.30;99.90;;;;;;5027198;28;20517;-57
2024/01/26 02:50:39;;;;;;;10.03;4.87;;;1.20;99.90;;;;;;5024219;28;20509;-56
2024/01/26 02:53:06;;;;;;;14.33;5.30;;;1.20;99.60;;;;;;5030969;28;20454;-57
2024/01/26 02:55:32;;;;;;;16.43;5.60;;;1.20;99.90;;;;;;5028120;28;20917;-57
2024/01/26 02:58:00;;;;;;;21.90;5.87;;;1.10;99.90;;;;;;5030321;28;20956;-58
2024/01/26 03:00:27;;;;;;;14.10;5.70;;;1.10;91.00;;;;;;5030226;28;20524;-57
2024/01/26 03:02:53;;;;;;;9.90;4.73;;;1.10;93.30;;;;;;5029898;28;20455;-57
2024/01/26 03:05:20;;;;;;;23.50;6.23;;;1.00;99.90;;;;;;5025788;28;20455;-58
2024/01/26 03:07:46;;;;;;;13.33;5.30;;;1.00;92.20;;;;;;5026127;28;20491;-57
2024/01/26 03:10:14;;;;;;;13.93;5.67;;;1.00;99.90;;;;;;5027206;28;20475;-57
2024/01/26 03:12:41;;;;;;;14.80;5.50;;;1.00;99.90;;;;;;5028765;28;20446;-58
2024/01/26 03:15:09;;;;;;;12.67;4.83;;;0.90;99.90;;;;;;5030167;28;20459;-57
2024/01/26 03:17:36;;;;;;;18.97;5.40;;;0.90;99.90;;;;;;5029686;28;20532;-57
2024/01/26 03:20:02;;;;;;;17.43;5.43;;;0.90;99.90;;;;;;5026784;28;20487;-57
2024/01/26 03:22:29;;;;;;;16.70;5.67;;;0.80;99.90;;;;;;5024010;28;20466;-57
2024/01/26 03:25:08;;;;;;;17.70;4.80;;;0.80;99.90;;;;;;5029627;28;20517;-58
2024/01/26 03:27:35;;;;;;;12.20;4.83;;;0.80;99.90;;;;;;5028095;28;20541;-57
2024/01/26 03:30:03;;;;;;;12.33;4.70;;;0.80;99.90;;;;;;5029931;28;20483;-58
2024/01/26 03:32:31;;;;;;;14.47;4.83;;;0.80;99.90;;;;;;5027388;28;20466;-57
2024/01/26 03:34:58;;;;;;;13.50;4.80;;;0.80;99.90;;;;;;5029199;28;20471;-58
2024/01/26 03:37:24;;;;;;;15.73;5.60;;;0.80;99.90;;;;;;5029895;28;21015;-57
2024/01/26 03:39:51;;;;;;;16.83;5.83;;;0.80;99.90;;;;;;5033434;28;20487;-57
2024/01/26 03:42:17;;;;;;;13.23;5.10;;;0.90;99.90;;;;;;5043019;28;20485;-58
2024/01/26 03:44:44;;;;;;;18.23;5.50;;;1.00;99.90;;;;;;5042979;28;20462;-57
2024/01/26 03:47:11;;;;;;;15.53;5.00;;;1.00;99.90;;;;;;5028565;28;20755;-58
2024/01/26 03:49:44;;;;;;;13.17;4.63;;;1.10;99.90;;;;;;5026622;28;20490;-58
2024/01/26 03:52:11;;;;;;;14.93;5.10;;;1.10;99.90;;;;;;5026812;28;20446;-57
2024/01/26 03:54:37;;;;;;;15.10;4.73;;;1.10;99.90;;;;;;5028544;28;20467;-58
2024/01/26 03:57:05;;;;;;;19.40;5.13;;;1.10;99.90;;;;;;5029130;28;20446;-57
2024/01/26 03:59:32;;;;;;;14.33;5.80;;;1.10;99.90;;;;;;5029473;28;20488;-57
2024/01/26 04:01:59;;;;;;;10.87;4.73;;;1.20;99.90;;;;;;5026417;28;20493;-58
2024/01/26 04:04:26;;;;;;;14.27;6.17;;;1.20;99.90;;;;;;5027881;28;20463;-57
2024/01/26 04:06:54;;;;;;;14.03;5.37;;;1.20;99.90;;;;;;5023708;28;20458;-56
2024/01/26 04:09:20;;;;;;;9.67;4.27;;;1.30;99.90;;;;;;5028612;28;20973;-59
2024/01/26 04:11:47;;;;;;;13.53;5.53;;;1.30;99.90;;;;;;5026471;28;20482;-59
2024/01/26 04:14:14;;;;;;;14.03;5.27;;;1.40;99.90;;;;;;5027340;28;20463;-58
2024/01/26 04:16:40;;;;;;;20.73;5.13;;;1.40;99.90;;;;;;5027138;28;20458;-57
2024/01/26 04:19:07;;;;;;;21.87;7.00;;;1.50;99.90;;;;;;5030554;28;20475;-58
2024/01/26 04:21:33;;;;;;;16.33;5.73;;;1.60;99.90;;;;;;5041079;28;20450;-58
2024/01/26 04:24:01;;;;;;;16.40;5.53;;;1.70;99.90;;;;;;5032535;28;20483;-58
2024/01/26 04:26:29;;;;;;;18.53;5.70;;;1.80;99.90;;;;;;5046321;28;20522;-57
2024/01/26 04:28:55;;;;;;;16.93;5.73;;;1.80;99.90;;;;;;5041679;28;20512;-59
2024/01/26 04:31:23;;;;;;;17.80;5.57;;;1.80;99.90;;;;;;5031635;28;21012;-58
2024/01/26 04:33:50;;;;;;;14.40;4.70;;;1.80;99.90;;;;;;5030531;28;20450;-58
2024/01/26 04:36:17;;;;;;;18.00;5.77;;;1.80;99.90;;;;;;5028927;28;20459;-58
2024/01/26 04:38:44;;;;;;;16.80;5.43;;;1.80;92.00;;;;;;5031802;28;20481;-59
2024/01/26 04:41:11;;;;;;;19.73;5.10;;;1.80;79.60;;;;;;5028998;28;20482;-60
2024/01/26 04:43:38;;;;;;;13.33;5.67;;;1.80;20.00;;;;;;5030782;28;20466;-59
2024/01/26 04:46:05;;;;;;;16.37;5.37;;;1.80;21.90;;;;;;5030055;28;20524;-61
2024/01/26 04:48:31;;;;;;;19.50;5.77;;;1.80;21.30;;;;;;5032193;28;20474;-58
2024/01/26 04:50:58;;;;;;;17.00;4.80;;;1.80;22.60;;;;;;5031295;28;20532;-57
2024/01/26 04:53:24;;;;;;;13.83;4.80;;;1.80;22.20;;;;;;5031344;28;20512;-58
2024/01/26 04:55:51;;;;;;;15.83;5.57;;;1.80;22.90;;;;;;5031695;28;20462;-58
2024/01/26 04:58:19;;;;;;;15.20;5.10;;;1.90;20.50;;;;;;5026683;28;20964;-57
2024/01/26 05:00:46;;;;;;;21.30;5.67;;;1.90;20.10;;;;;;5031664;28;20474;-57
2024/01/26 05:03:12;;;;;;;12.83;5.30;;;1.90;21.50;;;;;;5029955;28;20546;-58
2024/01/26 05:05:39;;;;;;;12.47;5.47;;;1.90;24.40;;;;;;5028444;28;20525;-57
2024/01/26 05:08:06;;;;;;;17.30;5.80;;;1.90;22.80;;;;;;5026600;28;20455;-56
2024/01/26 05:10:33;;;;;;;22.83;6.57;;;2.00;24.80;;;;;;5028299;28;20487;-59
2024/01/26 05:12:59;;;;;;;17.40;6.33;;;2.10;81.50;;;;;;5029023;28;20486;-58
2024/01/26 05:15:27;;;;;;;17.13;5.93;;;2.20;99.90;;;;;;5030286;28;20455;-57
2024/01/26 05:17:54;;;;;;;15.23;5.87;;;2.30;99.90;;;;;;5030651;28;20541;-57
2024/01/26 05:20:22;;;;;;;15.13;5.43;;;2.30;74.30;;;;;;5029761;28;21015;-58
2024/01/26 05:22:48;;;;;;;23.37;8.27;;;2.30;22.00;;;;;;5027893;28;20490;-57
2024/01/26 05:25:15;;;;;;;16.80;6.23;;;2.40;20.30;;;;;;5025849;28;20532;-57
2024/01/26 05:27:42;;;;;;;24.47;8.00;;;2.40;75.00;;;;;;5027050;28;20467;-57
2024/01/26 05:30:09;;;;;;;23.23;6.90;;;2.50;81.10;;;;;;5032165;28;20543;-58
2024/01/26 05:32:37;;;;;;;18.83;6.70;;;2.50;92.10;;;;;;5028200;28;20504;-58
2024/01/26 05:35:05;;;;;;;14.07;6.13;;;2.60;93.30;;;;;;5026331;28;20463;-57
2024/01/26 05:37:31;;;;;;;25.70;6.77;;;2.60;86.10;;;;;;5031165;28;20502;-57
2024/01/26 05:39:58;;;;;;;23.33;6.70;;;2.60;89.40;;;;;;5026393;28;20495;-57
2024/01/26 05:42:25;;;;;;;27.87;6.70;;;2.60;91.60;;;;;;5015947;28;20914;-57
2024/01/26 05:44:51;;;;;;;18.83;6.50;;;2.80;91.70;;;;;;5023662;28;20946;-57
2024/01/26 05:47:18;;;;;;;15.93;6.40;;;2.80;76.80;;;;;;5029682;28;20455;-56
2024/01/26 05:49:46;;;;;;;19.50;6.20;;;2.90;21.80;;;;;;5029290;28;20902;-57
2024/01/26 05:52:13;;;;;;;18.10;7.40;;;2.90;22.90;;;;;;5031051;28;20519;-58
2024/01/26 05:54:39;;;;;;;13.93;6.97;;;3.00;27.50;;;;;;5031118;28;20486;-58
2024/01/26 05:57:06;;;;;;;21.83;7.60;;;3.00;30.00;;;;;;5029850;28;20647;-57
2024/01/26 05:59:32;;;;;;;14.27;6.47;;;3.00;39.00;;;;;;5032067;28;20552;-58
2024/01/26 06:02:01;;;;;;;18.90;6.63;;;3.00;41.80;;;;;;5023480;28;20455;-57
2024/01/26 06:04:27;;;;;;;17.60;6.60;;;3.10;47.20;;;;;;5028178;28;20582;-57
2024/01/26 06:06:55;;;;;;;21.53;6.87;;;3.10;56.50;;;;;;5025601;28;20459;-58
2024/01/26 06:09:21;;;;;;;16.77;6.60;;;3.10;65.60;;;;;;5030692;28;20513;-59
2024/01/26 06:11:48;;;;;;;27.63;7.70;;;3.10;66.90;;;;;;5028708;28;20482;-57
2024/01/26 06:14:15;;;;;;;20.50;7.30;;;3.10;68.30;;;;;;5030434;28;20463;-57
2024/01/26 06:16:41;;;;;;;22.07;6.57;;;3.10;68.70;;;;;;5031083;28;20473;-57
2024/01/26 06:19:08;;;;;;;16.53;6.47;;;3.20;74.90;;;;;;5027510;28;20463;-59
2024/01/26 06:21:34;;;;;;;17.47;6.80;;;3.20;79.40;;;;;;5029229;28;20846;-59
2024/01/26 06:24:02;;;;;;;17.07;7.73;;;3.20;85.10;;;;;;5028125;28;20518;-58
2024/01/26 06:26:29;;;;;;;16.33;7.30;;;3.10;88.20;;;;;;5022353;28;20525;-57
2024/01/26 06:28:56;;;;;;;23.53;8.20;;;3.10;91.00;;;;;;5025577;28;20459;-58
2024/01/26 06:31:25;;;;;;;22.77;7.20;;;3.10;91.80;;;;;;5024825;28;21070;-57
2024/01/26 06:33:52;;;;;;;21.73;7.47;;;3.00;92.70;;;;;;5026244;28;20463;-57
2024/01/26 06:36:18;;;;;;;21.83;7.90;;;2.90;88.90;;;;;;5025553;28;20467;-57
2024/01/26 06:38:45;;;;;;;24.27;6.80;;;2.90;88.80;;;;;;5024365;28;20953;-58
2024/01/26 06:41:13;;;;;;;20.17;9.43;;;2.90;85.30;;;;;;5024275;28;20544;-58
2024/01/26 06:43:39;;;;;;;16.23;6.90;;;2.80;83.70;;;;;;5022265;28;20486;-58
2024/01/26 06:46:06;;;;;;;27.80;8.03;;;2.80;83.60;;;;;;5028641;28;20463;-58
2024/01/26 06:48:33;;;;;;;21.30;8.20;;;2.80;79.40;;;;;;5024047;28;20544;-58
2024/01/26 06:50:59;;;;;;;22.33;6.97;;;2.70;76.20;;;;;;5031803;28;20480;-58
2024/01/26 06:53:26;;;;;;;25.60;7.43;;;2.70;74.00;;;;;;5038641;28;20464;-58
2024/01/26 06:55:52;;;;;;;24.37;7.20;;;2.70;73.60;;;;;;5024455;28;20466;-58
2024/01/26 06:58:20;;;;;;;14.77;7.40;;;2.60;71.10;;;;;;5022632;28;20463;-58
2024/01/26 07:00:47;;;;;;;22.33;8.43;;;2.60;69.90;;;;;;5022895;28;20482;-59
2024/01/26 07:03:13;;;;;;;20.83;9.33;;;2.50;66.80;;;;;;5021702;28;20459;-58
2024/01/26 07:05:40;;;;;;;29.77;9.87;;;2.50;64.00;;;;;;5027610;28;20455;-58
2024/01/26 07:08:08;;;;;;;13.40;6.90;;;2.50;60.10;;;;;;5021293;28;20868;-58
2024/01/26 07:10:35;;;;;;;22.37;9.87;;;2.50;58.10;;;;;;5024539;28;21066;-58
2024/01/26 07:13:01;;;;;;;23.60;10.70;;;2.50;54.20;;;;;;5022836;28;20478;-57
2024/01/26 07:15:29;;;;;;;28.20;11.73;;;2.50;51.30;;;;;;5025124;28;20466;-57
2024/01/26 07:17:56;;;;;;;25.67;7.87;;;2.50;49.10;;;;;;5028343;28;20545;-57
2024/01/26 07:20:23;;;;;;;14.60;6.90;;;2.50;48.60;;;;;;5029027;28;21008;-57
2024/01/26 07:22:50;;;;;;;18.00;7.33;;;2.50;48.20;;;;;;5025358;28;20466;-60
2024/01/26 07:25:19;;;;;;;18.80;7.17;;;2.60;49.00;;;;;;5021995;28;20466;-58
2024/01/26 07:27:45;;;;;;;21.77;7.47;;;2.60;48.60;;;;;;5022022;28;20454;-56
2024/01/26 07:30:13;;;;;;;21.00;7.40;;;2.70;50.60;;;;;;5018456;28;20486;-57
2024/01/26 07:32:41;;;;;;;18.27;8.10;;;2.70;50.80;;;;;;5021585;28;21045;-56
2024/01/26 07:35:08;;;;;;;18.73;6.87;;;2.80;53.80;;;;;;5022268;28;20455;-57
2024/01/26 07:37:35;;;;;;;19.07;6.50;;;2.80;57.90;;;;;;5019566;28;20455;-57
2024/01/26 07:40:04;;;;;;;18.83;7.03;;;2.90;62.80;;;;;;5020514;28;20525;-57
2024/01/26 07:42:31;;;;;;;20.13;8.50;;;3.00;70.40;;;;;;5021921;28;20791;-57
2024/01/26 07:44:57;;;;;;;25.60;8.60;;;3.00;71.40;;;;;;5016915;28;20463;-58
2024/01/26 07:47:24;;;;;;;16.90;7.10;;;3.00;77.10;;;;;;5023615;28;20478;-58
2024/01/26 07:49:52;;;;;;;25.00;8.80;;;3.10;79.30;;;;;;5021530;28;20545;-56
2024/01/26 07:52:20;;;;;;;22.67;7.40;;;3.10;83.50;;;;;;5023428;28;20529;-57
2024/01/26 07:54:48;;;;;;;29.23;7.53;;;3.20;86.40;;;;;;5022665;28;20474;-57
2024/01/26 07:57:15;;;;;;;25.03;8.70;;;3.20;88.70;;;;;;5018332;28;20549;-56
2024/01/26 07:59:41;;;;;;;17.97;7.00;;;3.30;97.00;;;;;;5024183;28;20504;-57
2024/01/26 08:02:08;;;;;;;18.77;7.13;;;3.40;99.90;;;;;;5026895;28;20623;-57
2024/01/26 08:04:34;;;;;;;22.60;6.97;;;3.50;99.90;;;;;;5021246;28;20608;-57
2024/01/26 08:07:02;;;;;;;32.53;8.33;;;3.60;99.90;;;;;;5025680;28;20463;-57
2024/01/26 08:09:29;;;;;;;19.30;6.60;;;3.60;99.90;;;;;;5028563;28;21203;-58
2024/01/26 08:11:55;;;;;;;22.30;7.43;;;3.70;99.90;;;;;;5032630;28;20482;-57
2024/01/26 08:14:22;;;;;;;21.50;7.97;;;3.80;99.90;;;;;;5026937;28;20466;-57
2024/01/26 08:16:49;;;;;;;17.90;7.40;;;3.80;99.90;;;;;;5025166;28;20470;-57
2024/01/26 08:19:15;;;;;;;24.23;7.47;;;3.90;99.90;;;;;;5029550;28;20596;-56
2024/01/26 08:21:42;;;;;;;21.20;7.87;;;3.90;99.90;;;;;;5032372;28;20489;-58
2024/01/26 08:24:10;;;;;;;20.90;7.30;;;4.00;99.90;;;;;;5023672;28;20455;-58
2024/01/26 08:26:36;;;;;;;25.27;7.97;;;4.00;99.90;;;;;;5031366;28;20530;-56
2024/01/26 08:29:03;;;;;;;22.10;7.80;;;4.10;99.90;;;;;;5030722;28;20524;-56
2024/01/26 08:31:30;;;;;;;22.80;8.30;;;4.20;99.90;;;;;;5022730;28;20501;-58
2024/01/26 08:33:56;;;;;;;22.03;6.73;;;4.20;99.90;;;;;;5029012;28;21961;-57
2024/01/26 08:36:23;;;;;;;20.80;7.40;;;4.30;99.90;;;;;;5026537;28;20513;-56
2024/01/26 08:38:52;;;;;;;19.93;7.73;;;4.30;99.90;;;;;;5029483;28;20462;-58
2024/01/26 08:41:20;;;;;;;23.67;8.80;;;4.30;99.90;;;;;;5031721;28;20874;-56
2024/01/26 08:43:46;;;;;;;27.00;7.67;;;4.40;99.90;;;;;;5031109;28;20450;-58
2024/01/26 08:46:13;;;;;;;29.90;8.20;;;4.40;99.90;;;;;;5032450;28;20461;-56
2024/01/26 08:48:40;;;;;;;31.00;8.10;;;4.50;99.90;;;;;;5026755;28;20551;-57
2024/01/26 08:51:07;;;;;;;22.27;8.03;;;4.50;99.90;;;;;;5028548;28;20522;-56
2024/01/26 08:53:33;;;;;;;19.10;6.97;;;4.50;99.90;;;;;;5031490;28;20489;-56
2024/01/26 08:56:03;;;;;;;17.60;8.20;;;4.50;99.90;;;;;;5031550;28;20458;-57
2024/01/26 08:58:31;;;;;;;21.57;8.47;;;4.50;99.90;;;;;;5029263;28;20471;-56
2024/01/26 09:00:58;;;;;;;24.37;10.27;;;4.60;99.90;;;;;;5031343;28;20483;-56
2024/01/26 09:03:26;;;;;;;28.50;8.43;;;4.60;99.90;;;;;;5030197;28;21019;-56
2024/01/26 09:05:52;;;;;;;36.10;9.90;;;4.60;99.90;;;;;;5021150;28;20451;-57
2024/01/26 09:08:19;;;;;;;19.00;7.50;;;4.70;99.90;;;;;;5028780;28;20463;-57
2024/01/26 09:10:45;;;;;;;29.00;8.30;;;4.80;99.90;;;;;;5029977;28;20529;-57
2024/01/26 09:13:12;;;;;;;22.93;7.93;;;4.80;99.90;;;;;;5029409;28;20486;-56
2024/01/26 09:15:40;;;;;;;20.17;8.63;;;4.80;99.90;;;;;;5031593;28;20520;-56
2024/01/26 09:18:07;;;;;;;20.50;7.20;;;4.90;99.90;;;;;;5030575;28;20961;-56
2024/01/26 09:20:33;;;;;;;18.10;7.17;;;5.00;99.90;;;;;;5030502;28;20490;-56
2024/01/26 09:23:00;;;;;;;18.50;7.47;;;5.00;99.90;;;;;;5030429;28;20510;-56
2024/01/26 09:25:26;;;;;;;22.33;8.00;;;5.10;99.90;;;;;;5024867;28;20467;-56
2024/01/26 09:27:53;;;;;;;29.23;8.90;;;5.20;99.90;;;;;;5029750;28;20505;-56
2024/01/26 09:30:20;;;;;;;19.87;7.17;;;5.20;99.90;;;;;;5031871;28;20471;-56
2024/01/26 09:32:48;;;;;;;22.77;8.00;;;5.30;99.90;;;;;;5027343;28;20482;-56
2024/01/26 09:35:15;;;;;;;21.27;9.40;;;5.40;99.90;;;;;;5025340;28;20532;-57
2024/01/26 09:37:41;;;;;;;20.43;7.07;;;5.50;99.90;;;;;;5030354;28;20478;-57
2024/01/26 09:40:12;;;;;;;23.83;7.70;;;5.60;99.90;;;;;;5028955;28;20532;-56
2024/01/26 09:42:39;;;;;;;24.87;8.00;;;5.80;99.90;;;;;;5030168;28;20463;-57
2024/01/26 09:45:06;;;;;;;17.53;7.30;;;5.80;99.90;;;;;;5030978;28;20485;-56
2024/01/26 09:47:36;;;;;;;22.03;8.30;;;5.80;99.90;;;;;;5027817;28;20520;-57
2024/01/26 09:50:05;;;;;;;19.27;7.23;;;5.80;99.90;;;;;;5029650;28;20878;-56
2024/01/26 09:52:34;;;;;;;14.97;7.00;;;5.80;99.90;;;;;;5027537;28;20512;-56
2024/01/26 09:55:02;;;;;;;24.13;7.60;;;5.90;99.90;;;;;;5027268;28;20458;-56
2024/01/26 09:57:31;;;;;;;20.83;7.93;;;6.00;99.90;;;;;;5020929;28;20886;-56
2024/01/26 09:59:57;;;;;;;14.20;6.60;;;6.00;99.90;;;;;;5028065;28;20489;-57
2024/01/26 10:02:26;;;;;;;24.90;8.50;;;6.00;99.90;;;;;;5023369;28;20463;-56
2024/01/26 10:04:54;;;;;;;26.13;8.87;;;5.90;99.90;;;;;;5022201;28;20475;-57
2024/01/26 10:07:22;;;;;;;25.10;7.90;;;5.90;99.90;;;;;;5016686;28;20461;-57
2024/01/26 10:09:49;;;;;;;18.43;7.90;;;5.90;99.90;;;;;;5033543;28;20483;-56
2024/01/26 10:12:16;;;;;;;20.83;7.93;;;5.90;99.90;;;;;;5035154;28;20474;-59
2024/01/26 10:14:42;;;;;;;31.27;8.17;;;5.90;99.90;;;;;;5042382;28;21043;-58
2024/01/26 10:17:09;;;;;;;23.23;8.53;;;6.00;99.90;;;;;;5047638;28;20490;-57
2024/01/26 10:19:35;;;;;;;32.83;9.10;;;6.10;99.90;;;;;;5049295;28;20566;-57
2024/01/26 10:22:03;;;;;;;27.03;8.07;;;6.20;99.90;;;;;;5053162;28;20447;-57
2024/01/26 10:24:31;;;;;;;17.23;7.10;;;6.20;99.90;;;;;;5044010;28;20454;-74
2024/01/26 10:26:58;;;;;;;18.13;7.60;;;6.30;99.90;;;;;;5028605;28;20508;-57
2024/01/26 10:29:25;;;;;;;14.03;7.17;;;6.40;99.90;;;;;;5027609;28;20478;-57
2024/01/26 10:31:52;;;;;;;17.40;7.57;;;6.40;99.90;;;;;;5026255;28;20463;-56
2024/01/26 10:34:19;;;;;;;22.60;7.53;;;6.50;99.90;;;;;;5027626;28;20469;-57
2024/01/26 10:36:48;;;;;;;27.47;8.03;;;6.50;99.90;;;;;;5031065;28;21139;-57
2024/01/26 10:39:21;;;;;;;20.00;7.83;;;6.40;99.90;;;;;;5029858;28;20816;-57
2024/01/26 10:41:52;;;;;;;15.87;7.10;;;6.50;99.90;;;;;;5030714;28;20458;-58
2024/01/26 10:44:20;;;;;;;15.57;6.60;;;6.60;99.90;;;;;;5023599;28;20558;-58
2024/01/26 10:46:46;;;;;;;16.73;7.83;;;6.70;99.90;;;;;;5021343;28;20577;-57
2024/01/26 10:49:14;;;;;;;20.10;6.93;;;6.70;99.90;;;;;;5023900;28;20455;-56
2024/01/26 10:51:41;;;;;;;21.33;7.77;;;6.70;99.90;;;;;;5026100;28;20455;-56
2024/01/26 10:54:10;;;;;;;17.77;7.80;;;6.70;99.90;;;;;;5028252;28;20517;-56
2024/01/26 10:56:37;;;;;;;13.87;6.53;;;6.80;99.90;;;;;;5025638;28;20937;-57
2024/01/26 10:59:06;;;;;;;13.23;7.23;;;7.00;99.90;;;;;;5023708;28;20949;-58
2024/01/26 11:01:33;;;;;;;16.80;7.50;;;7.10;99.90;;;;;;5026001;28;20906;-56
2024/01/26 11:04:01;;;;;;;15.53;7.00;;;7.10;99.90;;;;;;5028032;28;20442;-58
2024/01/26 11:06:28;;;;;;;16.97;7.50;;;7.10;99.90;;;;;;5021793;28;20435;-55
2024/01/26 11:09:00;;;;;;;14.17;6.30;;;7.20;99.90;;;;;;5023574;28;20529;-56
2024/01/26 11:11:31;;;;;;;23.17;7.67;;;7.20;99.90;;;;;;5019648;28;20456;-57
2024/01/26 11:14:00;;;;;;;20.30;8.20;;;7.20;99.90;;;;;;5030970;28;20984;-56
2024/01/26 11:16:33;;;;;;;14.50;6.33;;;7.20;99.90;;;;;;5030633;28;20457;-57
2024/01/26 11:19:01;;;;;;;15.23;6.73;;;7.30;99.90;;;;;;5030667;28;20443;-57
2024/01/26 11:21:37;;;;;;;15.67;7.30;;;7.30;99.90;;;;;;5031075;28;20464;-57
2024/01/26 11:24:14;;;;;;;12.80;6.90;;;7.30;99.90;;;;;;5027280;28;20525;-58
2024/01/26 11:26:41;;;;;;;19.00;7.60;;;7.30;99.90;;;;;;5025592;28;20467;-57
2024/01/26 11:29:12;;;;;;;13.17;6.27;;;7.30;99.90;;;;;;5029873;28;20454;-57
2024/01/26 11:31:41;;;;;;;19.00;7.03;;;7.40;99.90;;;;;;5030021;28;20497;-57
2024/01/26 11:34:17;;;;;;;13.00;6.97;;;7.40;99.90;;;;;;5028518;28;20479;-58
2024/01/26 11:36:44;;;;;;;17.17;6.87;;;7.40;99.90;;;;;;5033501;28;20473;-57
2024/01/26 11:39:14;;;;;;;17.13;7.37;;;7.40;99.90;;;;;;5032490;28;20463;-58
2024/01/26 11:41:44;;;;;;;14.23;7.20;;;7.40;99.90;;;;;;5030752;28;20431;-57
2024/01/26 11:44:19;;;;;;;8.93;5.90;;;7.40;99.90;;;;;;5037676;28;20920;-58
2024/01/26 11:46:47;;;;;;;17.60;6.57;;;7.40;99.90;;;;;;5038489;28;20529;-57
2024/01/26 11:49:14;;;;;;;20.00;6.90;;;7.40;99.90;;;;;;5037453;28;20504;-57
2024/01/26 11:51:40;;;;;;;16.90;7.33;;;7.50;99.90;;;;;;5037738;28;20447;-57
2024/01/26 11:54:08;;;;;;;17.87;6.83;;;7.50;99.90;;;;;;5035205;28;20521;-58
2024/01/26 11:56:35;;;;;;;21.00;6.73;;;7.50;99.90;;;;;;5024968;28;20458;-58
2024/01/26 11:59:02;;;;;;;10.73;6.43;;;7.50;99.90;;;;;;5034772;28;20492;-57
2024/01/26 12:01:29;;;;;;;19.33;6.83;;;7.50;99.90;;;;;;5036223;28;20451;-57
2024/01/26 12:03:57;;;;;;;17.10;7.20;;;7.50;99.90;;;;;;5037244;28;20447;-58
2024/01/26 12:06:23;;;;;;;13.53;7.00;;;7.50;96.30;;;;;;5035987;28;20849;-58
2024/01/26 12:08:50;;;;;;;17.00;6.83;;;7.50;86.10;;;;;;5036771;28;20438;-56
2024/01/26 12:11:17;;;;;;;20.40;9.60;;;7.50;66.40;;;;;;5032253;28;20512;-57
2024/01/26 12:13:44;;;;;;;15.33;8.90;;;7.30;42.90;;;;;;5028527;28;20482;-57
2024/01/26 12:16:11;;;;;;;15.80;7.40;;;7.30;29.40;;;;;;5036872;28;20951;-57
2024/01/26 12:18:38;;;;;;;13.90;6.00;;;7.20;99.90;;;;;;5033896;28;20553;-58
2024/01/26 12:21:05;;;;;;;10.00;5.40;;;7.20;99.90;;;;;;5033086;28;20609;-57
2024/01/26 12:23:33;;;;;;;11.40;6.57;;;7.20;99.90;;;;;;5035684;28;20469;-57
2024/01/26 12:26:00;;;;;;;10.33;6.23;;;7.20;99.90;;;;;;5035526;28;20451;-57
2024/01/26 12:28:27;;;;;;;9.57;5.60;;;7.20;99.90;;;;;;5034901;28;20458;-57
2024/01/26 12:30:54;;;;;;;13.23;5.97;;;7.20;99.90;;;;;;5029236;28;20570;-57
2024/01/26 12:33:23;;;;;;;8.53;5.63;;;7.20;99.90;;;;;;5030836;28;20532;-57
2024/01/26 12:35:52;;;;;;;14.90;7.20;;;7.20;99.90;;;;;;5030388;28;20892;-58
2024/01/26 12:38:20;;;;;;;15.17;7.00;;;7.20;99.90;;;;;;5034989;28;20508;-57
2024/01/26 12:40:47;;;;;;;14.30;6.33;;;7.20;99.90;;;;;;5031530;28;20847;-57
2024/01/26 12:43:14;;;;;;;17.33;6.83;;;7.20;99.90;;;;;;5036201;28;20497;-57
2024/01/26 12:45:40;;;;;;;9.40;6.40;;;7.20;99.90;;;;;;5026986;28;20443;-57
2024/01/26 12:48:08;;;;;;;11.27;5.70;;;7.20;99.90;;;;;;5028135;28;20440;-57